sensor_id;sensor_type;location;lat;lon;timestamp;temperature;humidity
28677;DHT22;15858;48.338;11.078;2023-07-31T00:02:14;15.40;99.90
28677;DHT22;15858;48.338;11.078;2023-07-31T00:04:41;15.40;99.90
28677;DHT22;15858;48.338;11.078;2023-07-31T00:07:07;15.40;99.90
28677;DHT22;15858;48.338;11.078;2023-07-31T00:09:34;15.30;99.90
28677;DHT22;15858;48.338;11.078;2023-07-31T00:12:01;15.30;99.90
28677;DHT22;15858;48.338;11.078;2023-07-31T00:14:27;15.30;99.90
28677;DHT22;15858;48.338;11.078;2023-07-31T00:16:54;15.30;99.90
28677;DHT22;15858;48.338;11.078;2023-07-31T00:19:20;15.20;99.90
28677;DHT22;15858;48.338;11.078;2023-07-31T00:21:47;15.20;99.90
28677;DHT22;15858;48.338;11.078;2023-07-31T00:24:14;15.20;99.90
28677;DHT22;15858;48.338;11.078;2023-07-31T00:26:40;15.10;99.90
28677;DHT22;15858;48.338;11.078;2023-07-31T00:29:07;15.10;99.90
28677;DHT22;15858;48.338;11.078;2023-07-31T00:31:34;15.00;99.90
28677;DHT22;15858;48.338;11.078;2023-07-31T00:34:01;15.00;99.90
28677;DHT22;15858;48.338;11.078;2023-07-31T00:36:27;15.00;99.90
28677;DHT22;15858;48.338;11.078;2023-07-31T00:38:54;14.90;99.90
28677;DHT22;15858;48.338;11.078;2023-07-31T00:41:21;14.80;99.90
28677;DHT22;15858;48.338;11.078;2023-07-31T00:43:47;14.80;99.90
28677;DHT22;15858;48.338;11.078;2023-07-31T00:46:14;14.80;99.90
28677;DHT22;15858;48.338;11.078;2023-07-31T00:48:40;14.80;99.90
28677;DHT22;15858;48.338;11.078;2023-07-31T00:51:08;14.70;99.90
28677;DHT22;15858;48.338;11.078;2023-07-31T00:53:35;14.80;99.90
28677;DHT22;15858;48.338;11.078;2023-07-31T00:56:02;14.70;99.90
28677;DHT22;15858;48.338;11.078;2023-07-31T00:58:29;14.70;99.90
28677;DHT22;15858;48.338;11.078;2023-07-31T01:00:56;14.70;99.90
28677;DHT22;15858;48.338;11.078;2023-07-31T01:03:23;14.80;99.90
28677;DHT22;15858;48.338;11.078;2023-07-31T01:08:44;14.80;99.90
28677;DHT22;15858;48.338;11.078;2023-07-31T01:11:15;14.80;99.90
28677;DHT22;15858;48.338;11.078;2023-07-31T01:13:44;14.90;99.90
28677;DHT22;15858;48.338;11.078;2023-07-31T01:16:11;14.90;99.90
28677;DHT22;15858;48.338;11.078;2023-07-31T01:18:37;14.80;99.90
28677;DHT22;15858;48.338;11.078;2023-07-31T01:21:23;14.80;99.90
28677;DHT22;15858;48.338;11.078;2023-07-31T01:24:22;14.80;99.90
28677;DHT22;15858;48.338;11.078;2023-07-31T01:26:55;14.80;99.90
28677;DHT22;15858;48.338;11.078;2023-07-31T01:29:35;14.70;99.90
28677;DHT22;15858;48.338;11.078;2023-07-31T01:32:05;14.70;99.90
28677;DHT22;15858;48.338;11.078;2023-07-31T01:34:32;14.70;99.90
28677;DHT22;15858;48.338;11.078;2023-07-31T01:36:59;14.70;99.90
28677;DHT22;15858;48.338;11.078;2023-07-31T01:39:26;14.70;99.90
28677;DHT22;15858;48.338;11.078;2023-07-31T01:41:53;14.70;99.90
28677;DHT22;15858;48.338;11.078;2023-07-31T01:44:19;14.70;99.90
28677;DHT22;15858;48.338;11.078;2023-07-31T01:46:46;14.70;99.90
28677;DHT22;15858;48.338;11.078;2023-07-31T01:49:13;14.70;99.90
28677;DHT22;15858;48.338;11.078;2023-07-31T01:51:39;14.70;99.90
28677;DHT22;15858;48.338;11.078;2023-07-31T01:54:06;14.60;99.90
28677;DHT22;15858;48.338;11.078;2023-07-31T01:56:32;14.60;99.90
28677;DHT22;15858;48.338;11.078;2023-07-31T01:58:59;14.70;99.90
28677;DHT22;15858;48.338;11.078;2023-07-31T02:01:26;14.70;99.90
28677;DHT22;15858;48.338;11.078;2023-07-31T02:03:53;14.60;99.90
28677;DHT22;15858;48.338;11.078;2023-07-31T02:06:19;14.50;99.90
28677;DHT22;15858;48.338;11.078;2023-07-31T02:08:46;14.60;99.90
28677;DHT22;15858;48.338;11.078;2023-07-31T02:11:13;14.50;99.90
28677;DHT22;15858;48.338;11.078;2023-07-31T02:13:39;14.40;99.90
28677;DHT22;15858;48.338;11.078;2023-07-31T02:16:06;14.40;99.90
28677;DHT22;15858;48.338;11.078;2023-07-31T02:18:33;14.40;99.90
28677;DHT22;15858;48.338;11.078;2023-07-31T02:20:59;14.40;99.90
28677;DHT22;15858;48.338;11.078;2023-07-31T02:23:26;14.40;99.90
28677;DHT22;15858;48.338;11.078;2023-07-31T02:25:53;14.40;99.90
28677;DHT22;15858;48.338;11.078;2023-07-31T02:28:19;14.40;99.90
28677;DHT22;15858;48.338;11.078;2023-07-31T02:30:46;14.30;99.90
28677;DHT22;15858;48.338;11.078;2023-07-31T02:33:14;14.30;99.90
28677;DHT22;15858;48.338;11.078;2023-07-31T02:35:41;14.30;99.90
28677;DHT22;15858;48.338;11.078;2023-07-31T02:38:07;14.30;99.90
28677;DHT22;15858;48.338;11.078;2023-07-31T02:40:34;14.20;99.90
28677;DHT22;15858;48.338;11.078;2023-07-31T02:43:01;14.30;99.90
28677;DHT22;15858;48.338;11.078;2023-07-31T02:45:27;14.20;99.90
28677;DHT22;15858;48.338;11.078;2023-07-31T02:47:54;14.20;99.90
28677;DHT22;15858;48.338;11.078;2023-07-31T02:50:21;14.20;99.90
28677;DHT22;15858;48.338;11.078;2023-07-31T02:52:47;14.20;99.90
28677;DHT22;15858;48.338;11.078;2023-07-31T02:55:14;14.20;99.90
28677;DHT22;15858;48.338;11.078;2023-07-31T02:57:40;14.20;99.90
28677;DHT22;15858;48.338;11.078;2023-07-31T03:00:07;14.20;99.90
28677;DHT22;15858;48.338;11.078;2023-07-31T03:02:34;14.10;99.90
28677;DHT22;15858;48.338;11.078;2023-07-31T03:05:01;14.00;99.90
28677;DHT22;15858;48.338;11.078;2023-07-31T03:07:28;14.10;99.90
28677;DHT22;15858;48.338;11.078;2023-07-31T03:09:54;14.00;99.90
28677;DHT22;15858;48.338;11.078;2023-07-31T03:12:21;14.00;99.90
28677;DHT22;15858;48.338;11.078;2023-07-31T03:14:48;14.10;99.90
28677;DHT22;15858;48.338;11.078;2023-07-31T03:17:15;14.10;99.90
28677;DHT22;15858;48.338;11.078;2023-07-31T03:19:41;14.00;99.90
28677;DHT22;15858;48.338;11.078;2023-07-31T03:22:08;14.00;99.90
28677;DHT22;15858;48.338;11.078;2023-07-31T03:24:35;14.00;99.90
28677;DHT22;15858;48.338;11.078;2023-07-31T03:27:01;14.00;99.90
28677;DHT22;15858;48.338;11.078;2023-07-31T03:29:28;14.00;99.90
28677;DHT22;15858;48.338;11.078;2023-07-31T03:31:54;14.10;99.90
28677;DHT22;15858;48.338;11.078;2023-07-31T03:34:21;14.00;99.90
28677;DHT22;15858;48.338;11.078;2023-07-31T03:36:48;14.00;99.90
28677;DHT22;15858;48.338;11.078;2023-07-31T03:39:14;14.00;99.90
28677;DHT22;15858;48.338;11.078;2023-07-31T03:41:41;14.00;99.90
28677;DHT22;15858;48.338;11.078;2023-07-31T03:44:08;14.00;99.90
28677;DHT22;15858;48.338;11.078;2023-07-31T03:46:34;14.00;99.90
28677;DHT22;15858;48.338;11.078;2023-07-31T03:49:01;13.90;99.90
28677;DHT22;15858;48.338;11.078;2023-07-31T03:51:28;14.00;99.90
28677;DHT22;15858;48.338;11.078;2023-07-31T03:53:54;14.00;99.90
28677;DHT22;15858;48.338;11.078;2023-07-31T03:56:21;14.00;99.90
28677;DHT22;15858;48.338;11.078;2023-07-31T03:58:48;14.10;99.90
28677;DHT22;15858;48.338;11.078;2023-07-31T04:01:14;14.10;99.90
28677;DHT22;15858;48.338;11.078;2023-07-31T04:03:41;14.10;99.90
28677;DHT22;15858;48.338;11.078;2023-07-31T04:06:07;14.20;99.90
28677;DHT22;15858;48.338;11.078;2023-07-31T04:08:34;14.20;99.90
28677;DHT22;15858;48.338;11.078;2023-07-31T04:11:01;14.30;99.90
28677;DHT22;15858;48.338;11.078;2023-07-31T04:13:29;14.30;99.90
28677;DHT22;15858;48.338;11.078;2023-07-31T04:15:56;14.30;99.90
28677;DHT22;15858;48.338;11.078;2023-07-31T04:18:24;14.30;99.90
28677;DHT22;15858;48.338;11.078;2023-07-31T04:20:51;14.30;99.90
28677;DHT22;15858;48.338;11.078;2023-07-31T04:23:18;14.30;99.90
28677;DHT22;15858;48.338;11.078;2023-07-31T04:25:45;14.30;99.90
28677;DHT22;15858;48.338;11.078;2023-07-31T04:28:12;14.40;99.90
28677;DHT22;15858;48.338;11.078;2023-07-31T04:30:39;14.40;99.90
28677;DHT22;15858;48.338;11.078;2023-07-31T04:33:05;14.40;99.90
28677;DHT22;15858;48.338;11.078;2023-07-31T04:35:32;14.50;99.90
28677;DHT22;15858;48.338;11.078;2023-07-31T04:37:59;14.50;99.90
28677;DHT22;15858;48.338;11.078;2023-07-31T04:40:26;14.50;99.90
28677;DHT22;15858;48.338;11.078;2023-07-31T04:42:52;14.60;99.90
28677;DHT22;15858;48.338;11.078;2023-07-31T04:45:19;14.70;99.90
28677;DHT22;15858;48.338;11.078;2023-07-31T04:47:45;14.70;99.90
28677;DHT22;15858;48.338;11.078;2023-07-31T04:50:12;14.80;99.90
28677;DHT22;15858;48.338;11.078;2023-07-31T04:52:39;14.90;99.90
28677;DHT22;15858;48.338;11.078;2023-07-31T04:55:06;15.00;99.90
28677;DHT22;15858;48.338;11.078;2023-07-31T04:57:32;15.00;99.90
28677;DHT22;15858;48.338;11.078;2023-07-31T04:59:59;15.10;99.90
28677;DHT22;15858;48.338;11.078;2023-07-31T05:02:26;15.20;99.90
28677;DHT22;15858;48.338;11.078;2023-07-31T05:04:52;15.30;99.90
28677;DHT22;15858;48.338;11.078;2023-07-31T05:07:19;15.30;99.90
28677;DHT22;15858;48.338;11.078;2023-07-31T05:09:45;15.40;99.90
28677;DHT22;15858;48.338;11.078;2023-07-31T05:12:12;15.40;99.90
28677;DHT22;15858;48.338;11.078;2023-07-31T05:14:39;15.50;99.90
28677;DHT22;15858;48.338;11.078;2023-07-31T05:17:05;15.50;99.90
28677;DHT22;15858;48.338;11.078;2023-07-31T05:19:32;15.50;99.90
28677;DHT22;15858;48.338;11.078;2023-07-31T05:21:59;15.60;99.90
28677;DHT22;15858;48.338;11.078;2023-07-31T05:24:25;15.60;99.90
28677;DHT22;15858;48.338;11.078;2023-07-31T05:26:52;15.70;99.90
28677;DHT22;15858;48.338;11.078;2023-07-31T05:29:18;15.70;99.90
28677;DHT22;15858;48.338;11.078;2023-07-31T05:31:45;15.70;99.90
28677;DHT22;15858;48.338;11.078;2023-07-31T05:34:12;15.70;99.90
28677;DHT22;15858;48.338;11.078;2023-07-31T05:36:38;15.70;99.90
28677;DHT22;15858;48.338;11.078;2023-07-31T05:39:06;15.70;99.90
28677;DHT22;15858;48.338;11.078;2023-07-31T05:41:32;15.70;99.90
28677;DHT22;15858;48.338;11.078;2023-07-31T05:43:59;15.70;99.90
28677;DHT22;15858;48.338;11.078;2023-07-31T05:46:25;15.80;99.90
28677;DHT22;15858;48.338;11.078;2023-07-31T05:48:52;15.70;99.90
28677;DHT22;15858;48.338;11.078;2023-07-31T05:51:19;15.80;99.90
28677;DHT22;15858;48.338;11.078;2023-07-31T05:53:45;15.80;99.90
28677;DHT22;15858;48.338;11.078;2023-07-31T05:56:12;15.90;99.90
28677;DHT22;15858;48.338;11.078;2023-07-31T05:58:39;15.90;99.90
28677;DHT22;15858;48.338;11.078;2023-07-31T06:01:05;15.90;99.90
28677;DHT22;15858;48.338;11.078;2023-07-31T06:03:32;16.00;99.90
28677;DHT22;15858;48.338;11.078;2023-07-31T06:05:59;16.00;99.90
28677;DHT22;15858;48.338;11.078;2023-07-31T06:08:25;16.10;99.90
28677;DHT22;15858;48.338;11.078;2023-07-31T06:10:52;16.10;99.90
28677;DHT22;15858;48.338;11.078;2023-07-31T06:13:19;16.10;99.90
28677;DHT22;15858;48.338;11.078;2023-07-31T06:15:45;16.20;99.90
28677;DHT22;15858;48.338;11.078;2023-07-31T06:18:12;16.20;99.90
28677;DHT22;15858;48.338;11.078;2023-07-31T06:20:39;16.20;99.90
28677;DHT22;15858;48.338;11.078;2023-07-31T06:23:05;16.30;99.90
28677;DHT22;15858;48.338;11.078;2023-07-31T06:25:32;16.40;99.90
28677;DHT22;15858;48.338;11.078;2023-07-31T06:27:59;16.40;99.90
28677;DHT22;15858;48.338;11.078;2023-07-31T06:30:26;16.40;99.90
28677;DHT22;15858;48.338;11.078;2023-07-31T06:32:52;16.50;99.90
28677;DHT22;15858;48.338;11.078;2023-07-31T06:35:19;16.50;99.90
28677;DHT22;15858;48.338;11.078;2023-07-31T06:37:46;16.60;99.90
28677;DHT22;15858;48.338;11.078;2023-07-31T06:40:12;16.70;99.90
28677;DHT22;15858;48.338;11.078;2023-07-31T06:42:39;16.70;99.90
28677;DHT22;15858;48.338;11.078;2023-07-31T06:45:06;16.80;99.90
28677;DHT22;15858;48.338;11.078;2023-07-31T06:47:33;16.90;99.90
28677;DHT22;15858;48.338;11.078;2023-07-31T06:50:00;16.90;99.90
28677;DHT22;15858;48.338;11.078;2023-07-31T06:52:26;17.10;99.90
28677;DHT22;15858;48.338;11.078;2023-07-31T06:55:21;17.20;99.90
28677;DHT22;15858;48.338;11.078;2023-07-31T06:57:50;17.30;99.90
28677;DHT22;15858;48.338;11.078;2023-07-31T07:00:18;17.30;99.90
28677;DHT22;15858;48.338;11.078;2023-07-31T07:02:45;17.30;99.90
28677;DHT22;15858;48.338;11.078;2023-07-31T07:05:11;17.40;99.90
28677;DHT22;15858;48.338;11.078;2023-07-31T07:07:38;17.50;99.90
28677;DHT22;15858;48.338;11.078;2023-07-31T07:10:05;17.50;99.90
28677;DHT22;15858;48.338;11.078;2023-07-31T07:12:32;17.60;99.90
28677;DHT22;15858;48.338;11.078;2023-07-31T07:14:59;17.80;99.90
28677;DHT22;15858;48.338;11.078;2023-07-31T07:17:27;17.80;99.90
28677;DHT22;15858;48.338;11.078;2023-07-31T07:19:54;18.00;99.90
28677;DHT22;15858;48.338;11.078;2023-07-31T07:22:21;18.20;99.90
28677;DHT22;15858;48.338;11.078;2023-07-31T07:24:48;18.30;99.90
28677;DHT22;15858;48.338;11.078;2023-07-31T07:27:14;18.40;99.90
28677;DHT22;15858;48.338;11.078;2023-07-31T07:29:41;18.60;99.90
28677;DHT22;15858;48.338;11.078;2023-07-31T07:32:08;18.60;99.90
28677;DHT22;15858;48.338;11.078;2023-07-31T07:34:34;18.70;99.90
28677;DHT22;15858;48.338;11.078;2023-07-31T07:37:01;18.80;99.90
28677;DHT22;15858;48.338;11.078;2023-07-31T07:39:27;18.80;99.90
28677;DHT22;15858;48.338;11.078;2023-07-31T07:41:54;18.90;99.90
28677;DHT22;15858;48.338;11.078;2023-07-31T07:44:21;18.90;99.90
28677;DHT22;15858;48.338;11.078;2023-07-31T07:46:47;19.00;99.90
28677;DHT22;15858;48.338;11.078;2023-07-31T07:49:14;19.10;99.90
28677;DHT22;15858;48.338;11.078;2023-07-31T07:51:41;19.10;99.90
28677;DHT22;15858;48.338;11.078;2023-07-31T07:54:08;19.00;99.90
28677;DHT22;15858;48.338;11.078;2023-07-31T07:56:34;19.00;99.90
28677;DHT22;15858;48.338;11.078;2023-07-31T07:59:01;18.90;99.90
28677;DHT22;15858;48.338;11.078;2023-07-31T08:01:28;18.80;99.90
28677;DHT22;15858;48.338;11.078;2023-07-31T08:03:54;18.80;99.90
28677;DHT22;15858;48.338;11.078;2023-07-31T08:06:21;18.90;99.90
28677;DHT22;15858;48.338;11.078;2023-07-31T08:08:48;18.90;99.90
28677;DHT22;15858;48.338;11.078;2023-07-31T08:11:14;18.90;99.90
28677;DHT22;15858;48.338;11.078;2023-07-31T08:13:41;18.80;99.90
28677;DHT22;15858;48.338;11.078;2023-07-31T08:16:08;18.80;99.90
28677;DHT22;15858;48.338;11.078;2023-07-31T08:18:34;18.80;99.90
28677;DHT22;15858;48.338;11.078;2023-07-31T08:21:02;18.70;99.90
28677;DHT22;15858;48.338;11.078;2023-07-31T08:23:29;18.70;99.90
28677;DHT22;15858;48.338;11.078;2023-07-31T08:25:55;18.60;99.90
28677;DHT22;15858;48.338;11.078;2023-07-31T08:28:22;18.60;99.90
28677;DHT22;15858;48.338;11.078;2023-07-31T08:30:49;18.50;99.90
28677;DHT22;15858;48.338;11.078;2023-07-31T08:33:16;18.40;99.90
28677;DHT22;15858;48.338;11.078;2023-07-31T08:35:42;18.40;99.90
28677;DHT22;15858;48.338;11.078;2023-07-31T08:38:09;18.30;99.90
28677;DHT22;15858;48.338;11.078;2023-07-31T08:40:36;18.30;99.90
28677;DHT22;15858;48.338;11.078;2023-07-31T08:43:03;18.30;99.90
28677;DHT22;15858;48.338;11.078;2023-07-31T08:45:30;18.30;99.90
28677;DHT22;15858;48.338;11.078;2023-07-31T08:47:57;18.40;99.90
28677;DHT22;15858;48.338;11.078;2023-07-31T08:50:25;18.50;99.90
28677;DHT22;15858;48.338;11.078;2023-07-31T08:52:52;18.60;99.90
28677;DHT22;15858;48.338;11.078;2023-07-31T08:55:20;18.70;99.90
28677;DHT22;15858;48.338;11.078;2023-07-31T08:57:47;18.90;99.90
28677;DHT22;15858;48.338;11.078;2023-07-31T09:00:14;18.90;99.90
28677;DHT22;15858;48.338;11.078;2023-07-31T09:02:45;18.90;99.90
28677;DHT22;15858;48.338;11.078;2023-07-31T09:05:12;19.00;99.90
28677;DHT22;15858;48.338;11.078;2023-07-31T09:07:39;19.00;99.90
28677;DHT22;15858;48.338;11.078;2023-07-31T09:10:07;19.10;99.90
28677;DHT22;15858;48.338;11.078;2023-07-31T09:12:34;19.10;99.90
28677;DHT22;15858;48.338;11.078;2023-07-31T09:15:01;19.10;99.90
28677;DHT22;15858;48.338;11.078;2023-07-31T09:17:33;19.20;99.90
28677;DHT22;15858;48.338;11.078;2023-07-31T09:22:42;19.30;99.90
28677;DHT22;15858;48.338;11.078;2023-07-31T09:25:22;19.40;99.90
28677;DHT22;15858;48.338;11.078;2023-07-31T09:27:56;19.50;99.90
28677;DHT22;15858;48.338;11.078;2023-07-31T09:30:23;19.60;99.90
28677;DHT22;15858;48.338;11.078;2023-07-31T09:32:51;19.70;99.90
28677;DHT22;15858;48.338;11.078;2023-07-31T09:35:28;19.90;99.90
28677;DHT22;15858;48.338;11.078;2023-07-31T09:38:03;20.00;99.90
28677;DHT22;15858;48.338;11.078;2023-07-31T09:40:32;20.00;99.90
28677;DHT22;15858;48.338;11.078;2023-07-31T09:43:04;19.80;99.90
28677;DHT22;15858;48.338;11.078;2023-07-31T09:45:34;19.90;99.90
28677;DHT22;15858;48.338;11.078;2023-07-31T09:48:17;20.00;99.90
28677;DHT22;15858;48.338;11.078;2023-07-31T09:50:46;20.00;99.90
28677;DHT22;15858;48.338;11.078;2023-07-31T09:53:13;20.10;99.90
28677;DHT22;15858;48.338;11.078;2023-07-31T09:55:41;20.00;99.90
28677;DHT22;15858;48.338;11.078;2023-07-31T09:58:09;20.00;99.90
28677;DHT22;15858;48.338;11.078;2023-07-31T10:00:37;20.10;99.90
28677;DHT22;15858;48.338;11.078;2023-07-31T10:03:08;20.20;99.90
28677;DHT22;15858;48.338;11.078;2023-07-31T10:05:55;20.10;99.90
28677;DHT22;15858;48.338;11.078;2023-07-31T10:08:27;20.30;99.90
28677;DHT22;15858;48.338;11.078;2023-07-31T10:10:54;20.40;99.90
28677;DHT22;15858;48.338;11.078;2023-07-31T10:13:25;20.50;99.90
28677;DHT22;15858;48.338;11.078;2023-07-31T10:15:52;20.60;99.90
28677;DHT22;15858;48.338;11.078;2023-07-31T10:18:19;20.80;99.90
28677;DHT22;15858;48.338;11.078;2023-07-31T10:20:47;20.80;99.90
28677;DHT22;15858;48.338;11.078;2023-07-31T10:23:14;20.80;99.90
28677;DHT22;15858;48.338;11.078;2023-07-31T10:25:42;20.70;99.90
28677;DHT22;15858;48.338;11.078;2023-07-31T10:28:10;20.80;99.90
28677;DHT22;15858;48.338;11.078;2023-07-31T10:30:38;20.80;99.90
28677;DHT22;15858;48.338;11.078;2023-07-31T10:33:06;20.90;99.90
28677;DHT22;15858;48.338;11.078;2023-07-31T10:35:33;20.90;99.90
28677;DHT22;15858;48.338;11.078;2023-07-31T10:38:13;20.90;99.90
28677;DHT22;15858;48.338;11.078;2023-07-31T10:40:39;20.90;99.90
28677;DHT22;15858;48.338;11.078;2023-07-31T10:43:06;20.90;99.90
28677;DHT22;15858;48.338;11.078;2023-07-31T10:45:35;21.10;99.90
28677;DHT22;15858;48.338;11.078;2023-07-31T10:48:22;21.20;99.90
28677;DHT22;15858;48.338;11.078;2023-07-31T10:50:55;21.20;99.90
28677;DHT22;15858;48.338;11.078;2023-07-31T10:53:30;21.30;99.90
28677;DHT22;15858;48.338;11.078;2023-07-31T10:56:00;21.30;99.90
28677;DHT22;15858;48.338;11.078;2023-07-31T10:58:27;21.20;99.90
28677;DHT22;15858;48.338;11.078;2023-07-31T11:01:01;21.20;99.90
28677;DHT22;15858;48.338;11.078;2023-07-31T11:03:47;21.40;99.90
28677;DHT22;15858;48.338;11.078;2023-07-31T11:06:16;21.50;99.90
28677;DHT22;15858;48.338;11.078;2023-07-31T11:08:49;21.70;99.90
28677;DHT22;15858;48.338;11.078;2023-07-31T11:11:18;21.90;99.90
28677;DHT22;15858;48.338;11.078;2023-07-31T11:13:46;22.10;99.90
28677;DHT22;15858;48.338;11.078;2023-07-31T11:16:14;22.00;99.90
28677;DHT22;15858;48.338;11.078;2023-07-31T11:18:41;22.20;99.90
28677;DHT22;15858;48.338;11.078;2023-07-31T11:21:12;22.10;99.90
28677;DHT22;15858;48.338;11.078;2023-07-31T11:23:39;22.10;99.90
28677;DHT22;15858;48.338;11.078;2023-07-31T11:26:06;22.10;99.90
28677;DHT22;15858;48.338;11.078;2023-07-31T11:28:34;22.20;99.90
28677;DHT22;15858;48.338;11.078;2023-07-31T11:31:02;22.30;99.90
28677;DHT22;15858;48.338;11.078;2023-07-31T11:33:29;22.10;99.90
28677;DHT22;15858;48.338;11.078;2023-07-31T11:35:57;22.20;99.90
28677;DHT22;15858;48.338;11.078;2023-07-31T11:38:25;22.30;99.90
28677;DHT22;15858;48.338;11.078;2023-07-31T11:40:54;22.50;99.90
28677;DHT22;15858;48.338;11.078;2023-07-31T11:43:21;22.60;99.90
28677;DHT22;15858;48.338;11.078;2023-07-31T11:45:49;22.60;99.90
28677;DHT22;15858;48.338;11.078;2023-07-31T11:48:28;22.70;99.90
28677;DHT22;15858;48.338;11.078;2023-07-31T11:50:58;22.90;99.90
28677;DHT22;15858;48.338;11.078;2023-07-31T11:53:41;23.10;99.90
28677;DHT22;15858;48.338;11.078;2023-07-31T11:56:10;22.90;99.90
28677;DHT22;15858;48.338;11.078;2023-07-31T11:58:37;22.80;99.90
28677;DHT22;15858;48.338;11.078;2023-07-31T12:01:05;22.70;99.90
28677;DHT22;15858;48.338;11.078;2023-07-31T12:03:32;22.90;99.90
28677;DHT22;15858;48.338;11.078;2023-07-31T12:06:00;23.10;99.90
28677;DHT22;15858;48.338;11.078;2023-07-31T12:08:27;23.50;99.90
28677;DHT22;15858;48.338;11.078;2023-07-31T12:10:54;23.60;99.90
28677;DHT22;15858;48.338;11.078;2023-07-31T12:13:25;23.70;99.90
28677;DHT22;15858;48.338;11.078;2023-07-31T12:15:56;23.80;99.90
28677;DHT22;15858;48.338;11.078;2023-07-31T12:18:25;23.90;99.90
28677;DHT22;15858;48.338;11.078;2023-07-31T12:21:00;24.00;99.90
28677;DHT22;15858;48.338;11.078;2023-07-31T12:23:29;24.10;99.90
28677;DHT22;15858;48.338;11.078;2023-07-31T12:26:11;24.30;99.90
28677;DHT22;15858;48.338;11.078;2023-07-31T12:28:44;24.30;99.90
28677;DHT22;15858;48.338;11.078;2023-07-31T12:31:13;24.10;99.90
28677;DHT22;15858;48.338;11.078;2023-07-31T12:33:41;23.90;99.90
28677;DHT22;15858;48.338;11.078;2023-07-31T12:36:15;23.80;99.90
28677;DHT22;15858;48.338;11.078;2023-07-31T12:38:42;23.80;99.90
28677;DHT22;15858;48.338;11.078;2023-07-31T12:41:10;23.90;99.90
28677;DHT22;15858;48.338;11.078;2023-07-31T12:43:38;23.90;99.90
28677;DHT22;15858;48.338;11.078;2023-07-31T12:46:06;23.90;99.90
28677;DHT22;15858;48.338;11.078;2023-07-31T12:48:32;24.00;99.90
28677;DHT22;15858;48.338;11.078;2023-07-31T12:50:59;23.90;99.90
28677;DHT22;15858;48.338;11.078;2023-07-31T12:53:26;23.80;99.90
28677;DHT22;15858;48.338;11.078;2023-07-31T12:55:53;24.10;99.90
28677;DHT22;15858;48.338;11.078;2023-07-31T12:58:19;24.10;99.90
28677;DHT22;15858;48.338;11.078;2023-07-31T13:00:46;24.30;99.90
28677;DHT22;15858;48.338;11.078;2023-07-31T13:03:13;24.20;99.90
28677;DHT22;15858;48.338;11.078;2023-07-31T13:05:40;24.10;99.90
28677;DHT22;15858;48.338;11.078;2023-07-31T13:08:06;24.10;99.90
28677;DHT22;15858;48.338;11.078;2023-07-31T13:10:33;24.30;99.90
28677;DHT22;15858;48.338;11.078;2023-07-31T13:13:00;24.60;99.90
28677;DHT22;15858;48.338;11.078;2023-07-31T13:15:26;24.80;99.90
28677;DHT22;15858;48.338;11.078;2023-07-31T13:17:53;24.90;99.90
28677;DHT22;15858;48.338;11.078;2023-07-31T13:20:20;24.80;99.90
28677;DHT22;15858;48.338;11.078;2023-07-31T13:22:46;24.80;99.90
28677;DHT22;15858;48.338;11.078;2023-07-31T13:25:13;24.70;99.90
28677;DHT22;15858;48.338;11.078;2023-07-31T13:27:40;24.90;99.90
28677;DHT22;15858;48.338;11.078;2023-07-31T13:30:07;24.60;99.40
28677;DHT22;15858;48.338;11.078;2023-07-31T13:32:33;24.50;99.70
28677;DHT22;15858;48.338;11.078;2023-07-31T13:35:00;24.50;99.90
28677;DHT22;15858;48.338;11.078;2023-07-31T13:37:27;24.50;99.90
28677;DHT22;15858;48.338;11.078;2023-07-31T13:39:53;24.80;99.90
28677;DHT22;15858;48.338;11.078;2023-07-31T13:42:20;25.00;99.90
28677;DHT22;15858;48.338;11.078;2023-07-31T13:44:46;24.90;99.90
28677;DHT22;15858;48.338;11.078;2023-07-31T13:47:13;24.90;99.60
28677;DHT22;15858;48.338;11.078;2023-07-31T13:49:40;24.70;99.70
28677;DHT22;15858;48.338;11.078;2023-07-31T13:52:07;24.80;99.90
28677;DHT22;15858;48.338;11.078;2023-07-31T13:54:34;24.80;99.50
28677;DHT22;15858;48.338;11.078;2023-07-31T13:57:00;24.70;99.90
28677;DHT22;15858;48.338;11.078;2023-07-31T13:59:27;24.60;99.90
28677;DHT22;15858;48.338;11.078;2023-07-31T14:01:54;24.40;99.30
28677;DHT22;15858;48.338;11.078;2023-07-31T14:04:20;24.40;99.90
28677;DHT22;15858;48.338;11.078;2023-07-31T14:06:47;24.40;99.90
28677;DHT22;15858;48.338;11.078;2023-07-31T14:09:14;24.20;99.90
28677;DHT22;15858;48.338;11.078;2023-07-31T14:11:40;24.10;99.70
28677;DHT22;15858;48.338;11.078;2023-07-31T14:14:09;23.90;99.90
28677;DHT22;15858;48.338;11.078;2023-07-31T14:16:36;23.70;99.90
28677;DHT22;15858;48.338;11.078;2023-07-31T14:19:03;23.70;99.90
28677;DHT22;15858;48.338;11.078;2023-07-31T14:21:30;23.70;99.90
28677;DHT22;15858;48.338;11.078;2023-07-31T14:23:56;23.50;99.90
28677;DHT22;15858;48.338;11.078;2023-07-31T14:26:23;23.60;99.90
28677;DHT22;15858;48.338;11.078;2023-07-31T14:28:49;23.50;99.90
28677;DHT22;15858;48.338;11.078;2023-07-31T14:31:16;23.50;99.90
28677;DHT22;15858;48.338;11.078;2023-07-31T14:33:43;23.40;99.90
28677;DHT22;15858;48.338;11.078;2023-07-31T14:36:09;23.40;99.90
28677;DHT22;15858;48.338;11.078;2023-07-31T14:38:36;23.20;99.90
28677;DHT22;15858;48.338;11.078;2023-07-31T14:41:03;23.20;99.90
28677;DHT22;15858;48.338;11.078;2023-07-31T14:43:29;23.10;99.90
28677;DHT22;15858;48.338;11.078;2023-07-31T14:45:56;23.00;99.90
28677;DHT22;15858;48.338;11.078;2023-07-31T14:48:23;22.90;99.90
28677;DHT22;15858;48.338;11.078;2023-07-31T14:50:50;22.90;99.90
28677;DHT22;15858;48.338;11.078;2023-07-31T14:53:17;22.70;99.90
28677;DHT22;15858;48.338;11.078;2023-07-31T14:55:43;22.70;99.90
28677;DHT22;15858;48.338;11.078;2023-07-31T14:58:10;22.50;99.90
28677;DHT22;15858;48.338;11.078;2023-07-31T15:00:38;22.40;99.90
28677;DHT22;15858;48.338;11.078;2023-07-31T15:03:04;22.40;99.90
28677;DHT22;15858;48.338;11.078;2023-07-31T15:05:31;22.40;99.90
28677;DHT22;15858;48.338;11.078;2023-07-31T15:07:58;22.40;99.90
28677;DHT22;15858;48.338;11.078;2023-07-31T15:10:24;22.40;99.90
28677;DHT22;15858;48.338;11.078;2023-07-31T15:12:51;22.30;99.90
28677;DHT22;15858;48.338;11.078;2023-07-31T15:15:18;22.20;99.90
28677;DHT22;15858;48.338;11.078;2023-07-31T15:17:44;22.20;99.90
28677;DHT22;15858;48.338;11.078;2023-07-31T15:20:11;22.10;99.90
28677;DHT22;15858;48.338;11.078;2023-07-31T15:22:38;22.10;99.90
28677;DHT22;15858;48.338;11.078;2023-07-31T15:25:05;22.10;99.90